Scroll down
FLIGHT INFORMATION
British Airways

BAW237

At Arrival Gate

KDEN
 EGLL
DATE: 2020-12-14
GATE: 
GATE DEPARTURE: 05:15
TAKEOFF: 05:29
DATE: 2020-12-14
GATE:  -
LANDING: 13:34
GATE ARRIVAL: 13:38
FLIGHT DATA
Crew: 
Speed: 
910 kph
Altitude: 
37,062 ft
Stage Length: 
7,496.1 km
Block Time: 
8.3 hrs
Flight Time: 
8.1 hrs
Fuel Used: 
58,314 kg
Cleared Route: KDEN NUGGS HIDEF SHOBO LUPTN MRENE EEONS WYNDM HCT OBH MCW KG84K TVC LETAK YUL MIILS ELSIR 5050N 5240N 5330N 5320N MALOT GISTI SLANY STU NUMPO OKESI HOFIK BEDEK EGLL
TRACK DATA
50,000 ft 1,000 kts
AIRCRAFT INFO AND CUMULATIVE STATS
Aircraft Type: 
B77W
Registration: 
SELCAL: 
BPAJ
MSN/LN: 
42124 / 1221
Operator: 
Total Flights: 
2
Total Block Time: 
19 hrs
Total Flight Time: 
18.4 hrs
Total Fuel Used: 
135,125 kg
DATALINK LOG | Newest first | Current as of: 2022-10-04 19:38:29
LABEL SEQUENCE CONTENT Dn/Up
QD162113:38 22.8▼ Dn
QC121313:34▼ Dn
2U3222EGLL 150520Z AUTO 19005KT 160V230 9999 NCD 07/07 Q1003 NOSIG▲ Up
2S3222EGLL▼ Dn
QB335005:29▼ Dn
QA200705:15 151.5▼ Dn
A31411CLEARED TO EGLL VIA EEONS7 WYNDM HCT OBH MCW KG84K TVC LETAK YUL MIILS N329B ELSIR 50N050W 52N040W 53N030W 53N020W MALOT GISTI SLANY UL9 STU P2 BEDEK BEDE1H. SQUAWK 0736.▲ Up
2U1408KDEN 142153Z 32008KT 10SM SCT100 BKN150 BKN200 M02/M09 A2983 RMK AO2 SLP142 T10171094▲ Up
2S1408KDEN▼ Dn
Q01300[LINK ACK]▲ Up
Q01300[LINK TEST]▼ Dn


AIRCRAFT HISTORY
FLIGHT DATE FLIGHT NO. ORIGIN DESTINATION CLEARED ROUTE BLOCK TIME FLIGHT TIME FUEL USED PILOT
2020-12-20BAW271EGLL KLAS EGLL UMLAT WOBUN WELIN AKUPA TIMPO ELVOS TNT LISTO VABKA WAL PENIL CASEL KELLY GOMUP 6120N 6430N 6640N 6750N DARUB 6670N 6577N YZSNB YYQ 5895N 5598N 53N00 50N03 49N04 MLS FBR MLF KSINO KLAS10.7 hrs10.3 hrs169,341 lbRyan Syferd
2020-12-14BAW237KDEN EGLL KDEN NUGGS HIDEF SHOBO LUPTN MRENE EEONS WYNDM HCT OBH MCW KG84K TVC LETAK YUL MIILS ELSIR 5050N 5240N 5330N 5320N MALOT GISTI SLANY STU NUMPO OKESI HOFIK BEDEK EGLL8.3 hrs8.1 hrs128,559 lbMichael Roth